Time;durP1;ratioP1;P1;durP2;ratioP2;P2;SDS_P1;SDS_P2;PMS_P1;PMS_P2;Temp;Humidity;BMP_temperature;BMP_pressure;BME280_temperature;BME280_humidity;BME280_pressure;Samples;Min_cycle;Max_cycle;Signal;HPM_P1;HPM_P2
2024/03/13 00:14:16;;;;;;;11.03;3.73;;;;;;;5.42;50.41;100693.22;31143321;28;20403;-77
2024/03/13 00:29:18;;;;;;;10.13;3.27;;;;;;;5.52;51.08;100676.41;31140750;28;20089;-78
2024/03/13 00:44:21;;;;;;;14.03;4.47;;;;;;;5.41;51.95;100687.06;31139778;28;20129;-78
2024/03/13 00:59:23;;;;;;;9.13;4.37;;;;;;;5.39;52.38;100694.75;31136919;28;20117;-77
2024/03/13 01:14:25;;;;;;;7.40;3.37;;;;;;;5.46;52.62;100699.41;31137299;28;20133;-78
2024/03/13 01:29:27;;;;;;;6.43;3.37;;;;;;;5.25;52.63;100678.41;31132198;28;20057;-78
2024/03/13 02:15:22;;;;;;;7.07;3.10;;;;;;;4.88;52.58;100656.84;30963979;28;20723;-79
2024/03/13 02:30:24;;;;;;;8.30;3.17;;;;;;;5.35;50.32;100672.38;31030044;28;20555;-77
2024/03/13 02:45:27;;;;;;;6.00;3.00;;;;;;;5.21;50.33;100671.44;31002062;28;20141;-77
2024/03/13 03:00:29;;;;;;;8.70;3.50;;;;;;;6.12;49.40;100676.97;31003435;28;20141;-79
2024/03/13 03:15:34;;;;;;;8.97;2.90;;;;;;;4.90;52.89;100668.03;31001434;28;20105;-79
2024/03/13 03:30:41;;;;;;;5.20;2.87;;;;;;;4.97;54.72;100670.78;31009292;28;20069;-77
2024/03/13 03:45:45;;;;;;;6.60;3.93;;;;;;;4.42;59.32;100665.09;31016045;28;20058;-77
2024/03/13 04:00:47;;;;;;;7.43;4.27;;;;;;;5.01;61.89;100646.63;31025017;28;20053;-78
2024/03/13 04:15:50;;;;;;;9.03;3.53;;;;;;;4.29;69.62;100636.84;31018036;28;20043;-79
2024/03/13 04:30:52;;;;;;;6.63;4.00;;;;;;;4.49;68.89;100631.38;31014271;28;20047;-77
2024/03/13 04:45:54;;;;;;;12.47;4.50;;;;;;;4.79;68.35;100597.16;31074998;28;20053;-78
2024/03/13 05:00:57;;;;;;;8.73;3.77;;;;;;;4.66;65.81;100598.56;31119765;28;20092;-77
2024/03/13 05:15:59;;;;;;;7.13;3.57;;;;;;;5.34;63.25;100575.84;31121224;28;20050;-79
2024/03/13 05:31:01;;;;;;;8.10;3.50;;;;;;;5.50;63.18;100568.28;31152859;28;20125;-78
2024/03/13 05:46:05;;;;;;;13.20;4.50;;;;;;;5.56;61.96;100569.47;31127402;28;20526;-79
2024/03/13 06:01:11;;;;;;;9.83;4.77;;;;;;;6.57;57.99;100571.66;31011300;28;20042;-78
2024/03/13 06:16:15;;;;;;;9.57;4.20;;;;;;;6.68;57.93;100553.59;30989030;28;20092;-77
2024/03/13 06:31:17;;;;;;;7.83;3.60;;;;;;;6.49;56.50;100563.53;30997067;28;20050;-73
2024/03/13 06:46:19;;;;;;;6.77;3.67;;;;;;;6.61;55.12;100594.81;30996211;28;20146;-76
2024/03/13 07:01:21;;;;;;;9.70;4.47;;;;;;;7.08;53.25;100580.31;30991619;28;20058;-75
2024/03/13 07:16:23;;;;;;;12.13;3.33;;;;;;;7.97;51.64;100541.72;30983126;28;20065;-77
2024/03/13 07:31:26;;;;;;;9.03;4.00;;;;;;;7.61;49.70;100541.75;30999385;28;20055;-76
2024/03/13 07:46:29;;;;;;;16.73;3.23;;;;;;;7.62;48.50;100551.41;31002426;28;20424;-75
2024/03/13 08:01:31;;;;;;;6.47;3.70;;;;;;;8.49;46.34;100548.94;31014227;28;20515;-74
2024/03/13 08:16:33;;;;;;;9.00;3.00;;;;;;;7.94;46.68;100547.91;31036874;28;20492;-74
2024/03/13 08:31:53;;;;;;;8.67;3.53;;;;;;;8.18;46.92;100530.84;31007267;28;20100;-74
2024/03/13 08:47:12;;;;;;;7.20;3.37;;;;;;;8.31;46.29;100523.84;31034024;28;20107;-75
2024/03/13 09:02:32;;;;;;;8.70;3.33;;;;;;;8.33;46.64;100494.50;31102898;28;20100;-74
2024/03/13 09:17:51;;;;;;;5.30;3.27;;;;;;;8.47;45.37;100505.28;31115746;28;20538;-76
2024/03/13 09:32:54;;;;;;;7.07;3.33;;;;;;;8.81;45.36;100496.56;31110924;28;20042;-76
2024/03/13 09:48:00;;;;;;;9.93;3.80;;;;;;;9.65;44.26;100505.22;31058310;28;20538;-76
2024/03/13 10:03:13;;;;;;;5.50;2.40;;;;;;;10.31;42.33;100518.47;30988704;28;20137;-76
2024/03/13 10:18:34;;;;;;;5.13;2.73;;;;;;;9.54;42.22;100502.59;30993226;28;20166;-78
2024/03/13 10:33:37;;;;;;;4.57;2.83;;;;;;;10.02;42.20;100446.69;30989722;28;20069;-77
2024/03/13 10:48:39;;;;;;;7.47;3.03;;;;;;;10.77;42.16;100430.22;30989567;28;20101;-77
2024/03/13 11:03:43;;;;;;;3.00;2.30;;;;;;;10.36;40.11;100404.06;30967872;28;20050;-74
2024/03/13 11:18:46;;;;;;;17.90;2.97;;;;;;;10.48;40.16;100386.44;30982380;28;20105;-74
2024/03/13 11:33:52;;;;;;;4.93;2.77;;;;;;;10.56;39.05;100399.50;30983163;28;20419;-75
2024/03/13 11:48:56;;;;;;;7.40;3.83;;;;;;;10.80;39.19;100404.94;31073167;28;20471;-74
2024/03/13 12:04:06;;;;;;;5.83;3.17;;;;;;;10.69;38.64;100390.75;31128622;28;20450;-74
2024/03/13 12:19:09;;;;;;;9.17;3.97;;;;;;;10.97;39.07;100403.88;31039646;28;20073;-78
2024/03/13 12:34:12;;;;;;;23.80;3.63;;;;;;;11.22;38.94;100363.47;31002266;28;20058;-76
2024/03/13 12:49:15;;;;;;;11.47;3.93;;;;;;;10.98;39.80;100358.47;31081593;28;20508;-75
2024/03/13 13:04:20;;;;;;;7.07;2.93;;;;;;;12.07;39.35;100343.94;31119921;28;20141;-77
2024/03/13 13:19:24;;;;;;;10.80;3.70;;;;;;;12.16;39.36;100320.41;31102545;28;20046;-74
2024/03/13 13:34:26;;;;;;;6.80;3.73;;;;;;;12.31;39.33;100312.69;31125848;28;20057;-76
2024/03/13 13:49:28;;;;;;;9.67;4.30;;;;;;;11.42;39.36;100316.50;31051753;28;20101;-75
2024/03/13 14:04:32;;;;;;;8.10;3.10;;;;;;;11.44;37.74;100281.53;30962546;28;20084;-75
2024/03/13 14:19:38;;;;;;;6.37;2.67;;;;;;;11.26;37.49;100315.28;30976433;28;20063;-75
2024/03/13 14:34:40;;;;;;;6.57;3.33;;;;;;;11.04;37.37;100286.97;30974595;28;20485;-75
2024/03/13 14:50:10;;;;;;;5.05;2.20;;;;;;;11.16;37.47;100267.31;31987774;27;404130;-74
2024/03/13 15:05:12;;;;;;;7.40;3.17;;;;;;;11.02;37.57;100275.75;31933540;27;20545;-75
2024/03/13 15:20:15;;;;;;;5.23;3.77;;;;;;;10.76;38.10;100247.50;31915942;27;20062;-75
2024/03/13 15:35:17;;;;;;;16.27;6.03;;;;;;;10.63;39.08;100281.13;31922099;27;20035;-74
2024/03/13 15:50:20;;;;;;;8.03;4.27;;;;;;;10.32;39.75;100264.19;31887560;27;20593;-74
2024/03/13 16:05:33;;;;;;;11.63;4.90;;;;;;;10.26;40.61;100255.72;31811310;27;20134;-75
2024/03/13 16:20:36;;;;;;;19.00;5.43;;;;;;;9.91;41.44;100263.22;31815240;27;20054;-77
2024/03/13 16:35:38;;;;;;;15.60;5.37;;;;;;;9.97;42.00;100271.63;31839832;27;20054;-76
2024/03/13 16:50:40;;;;;;;11.10;3.50;;;;;;;9.87;42.02;100318.66;31821312;27;20075;-75
2024/03/13 17:05:42;;;;;;;9.37;4.03;;;;;;;9.93;42.25;100328.63;31805346;27;20408;-76
2024/03/13 17:20:44;;;;;;;5.60;3.03;;;;;;;9.52;41.73;100376.78;31799763;27;20047;-74
2024/03/13 17:35:47;;;;;;;11.97;3.43;;;;;;;9.54;41.15;100347.34;31820089;27;20062;-73
2024/03/13 17:50:50;;;;;;;7.83;3.33;;;;;;;9.58;41.01;100337.22;31803607;27;20515;-74
2024/03/13 18:05:53;;;;;;;4.77;2.30;;;;;;;9.29;41.90;100341.41;31810164;27;20055;-77
2024/03/13 18:20:55;;;;;;;6.97;3.17;;;;;;;9.01;42.89;100348.66;31825324;27;20047;-75
2024/03/13 18:35:57;;;;;;;11.47;3.30;;;;;;;9.01;43.54;100337.06;31798102;27;20063;-73
2024/03/13 18:50:59;;;;;;;7.83;2.03;;;;;;;8.63;45.47;100328.13;31810881;28;20044;-79
2024/03/13 19:06:08;;;;;;;5.90;2.50;;;;;;;8.80;45.41;100310.94;31820262;28;20426;-79
2024/03/13 19:21:10;;;;;;;9.60;3.53;;;;;;;8.60;45.99;100320.78;31834231;28;20854;-79
2024/03/13 19:36:12;;;;;;;5.03;3.10;;;;;;;8.49;46.43;100327.06;31848213;27;20085;-78
2024/03/13 19:51:14;;;;;;;10.63;3.00;;;;;;;8.36;46.69;100317.09;31838867;27;20403;-81
2024/03/13 20:06:17;;;;;;;15.23;6.47;;;;;;;8.59;46.08;100305.72;31847537;27;20058;-80
2024/03/13 20:21:19;;;;;;;8.93;2.63;;;;;;;8.76;45.91;100266.91;31805715;27;20047;-78
2024/03/13 20:36:21;;;;;;;4.50;2.60;;;;;;;8.28;47.06;100267.66;31831034;27;20059;-78
2024/03/13 20:51:24;;;;;;;7.17;3.00;;;;;;;8.16;48.43;100235.72;31787400;27;20047;-78
2024/03/13 21:06:26;;;;;;;8.27;2.60;;;;;;;8.26;48.13;100245.69;31836674;27;20578;-78
2024/03/13 21:21:28;;;;;;;7.43;3.77;;;;;;;8.18;50.87;100266.59;31804760;27;20047;-78
2024/03/13 21:36:31;;;;;;;6.67;2.27;;;;;;;7.99;55.01;100264.41;31825644;27;20458;-78
2024/03/13 21:51:33;;;;;;;8.87;2.20;;;;;;;7.83;56.85;100237.09;31818534;27;20445;-80
2024/03/13 22:06:35;;;;;;;7.07;2.70;;;;;;;7.70;60.90;100219.81;31821044;27;20051;-80
2024/03/13 22:21:37;;;;;;;7.63;2.80;;;;;;;7.57;62.64;100205.97;31819782;27;20050;-79
2024/03/13 22:36:39;;;;;;;5.00;2.37;;;;;;;7.60;63.88;100191.69;31828583;27;20126;-79
2024/03/13 22:51:41;;;;;;;5.13;2.30;;;;;;;7.85;62.21;100207.72;31823739;28;20054;-79
2024/03/13 23:06:44;;;;;;;4.93;2.30;;;;;;;8.30;62.51;100199.66;31841812;27;20051;-80
2024/03/13 23:21:47;;;;;;;3.40;2.10;;;;;;;7.48;66.68;100203.72;31832069;27;20043;-78
2024/03/13 23:36:50;;;;;;;11.53;2.90;;;;;;;8.06;66.39;100198.69;31843581;27;20523;-80
2024/03/13 23:51:52;;;;;;;5.80;3.00;;;;;;;7.36;71.27;100192.59;31820453;27;20510;-80
